createdAt,value
2019-04-05T00:02:08.409Z,15.00
2019-04-05T00:04:36.838Z,14.60
2019-04-05T00:07:05.344Z,15.37
2019-04-05T00:09:33.803Z,16.30
2019-04-05T00:12:02.213Z,16.70
2019-04-05T00:14:30.664Z,15.10
2019-04-05T00:16:59.091Z,14.23
2019-04-05T00:19:27.538Z,15.10
2019-04-05T00:21:55.970Z,17.93
2019-04-05T00:24:24.486Z,17.33
2019-04-05T00:26:53.611Z,14.43
2019-04-05T00:29:22.044Z,14.00
2019-04-05T00:31:50.480Z,14.90
2019-04-05T00:34:18.910Z,14.17
2019-04-05T00:36:47.357Z,13.70
2019-04-05T00:39:15.849Z,14.33
2019-04-05T00:41:44.280Z,12.73
2019-04-05T00:44:12.781Z,13.43
2019-04-05T00:46:41.204Z,12.97
2019-04-05T00:49:09.668Z,12.43
2019-04-05T00:51:38.087Z,12.50
2019-04-05T00:54:06.649Z,13.43
2019-04-05T00:56:35.089Z,13.40
2019-04-05T00:59:03.539Z,13.87
2019-04-05T01:01:32.794Z,14.50
2019-04-05T01:04:02.594Z,15.03
2019-04-05T01:06:31.104Z,15.37
2019-04-05T01:08:59.605Z,16.03
2019-04-05T01:11:28.020Z,14.77
2019-04-05T01:13:58.287Z,14.97
2019-04-05T01:16:27.194Z,13.50
2019-04-05T01:18:55.614Z,13.10
2019-04-05T01:21:28.802Z,14.20
2019-04-05T01:23:59.251Z,14.47
2019-04-05T01:26:27.863Z,13.20
2019-04-05T01:28:56.389Z,13.20
2019-04-05T01:31:24.947Z,14.07
2019-04-05T01:33:53.402Z,14.43
2019-04-05T01:36:21.834Z,13.50
2019-04-05T01:38:50.325Z,13.83
2019-04-05T01:41:19.001Z,15.90
2019-04-05T01:43:47.417Z,15.47
2019-04-05T01:46:15.857Z,14.57
2019-04-05T01:48:44.275Z,14.70
2019-04-05T01:51:12.777Z,13.40
2019-04-05T01:53:41.390Z,14.30
2019-04-05T01:56:09.836Z,14.63
2019-04-05T01:58:38.257Z,15.50
2019-04-05T02:01:06.709Z,15.77
2019-04-05T02:03:35.198Z,14.90
2019-04-05T02:06:03.781Z,15.77
2019-04-05T02:08:32.227Z,16.13
2019-04-05T02:11:00.737Z,14.53
2019-04-05T02:13:29.166Z,14.20
2019-04-05T02:16:06.103Z,14.73
2019-04-05T02:18:27.766Z,13.27
2019-04-05T02:20:56.270Z,13.60
2019-04-05T02:23:24.711Z,13.67
2019-04-05T02:25:53.148Z,13.17
2019-04-05T02:28:21.575Z,14.37
2019-04-05T02:30:50.036Z,14.10
2019-04-05T02:33:18.602Z,14.73
2019-04-05T02:35:47.171Z,13.80
2019-04-05T02:38:15.586Z,14.00
2019-04-05T02:40:45.069Z,14.57
2019-04-05T02:43:16.416Z,13.67
2019-04-05T02:45:47.238Z,14.87
2019-04-05T02:48:18.122Z,14.73
2019-04-05T02:50:49.650Z,13.67
2019-04-05T02:53:19.725Z,13.43
2019-04-05T02:55:49.719Z,14.00
2019-04-05T02:58:20.251Z,15.00
2019-04-05T03:00:50.015Z,13.20
2019-04-05T03:03:18.526Z,13.10
2019-04-05T03:05:47.339Z,14.03
2019-04-05T03:08:17.159Z,13.83
2019-04-05T03:11:03.879Z,15.03
2019-04-05T03:13:35.400Z,14.03
2019-04-05T03:16:06.928Z,14.40
2019-04-05T03:18:38.436Z,15.00
2019-04-05T03:21:08.404Z,15.10
2019-04-05T03:23:39.900Z,15.83
2019-04-05T03:26:11.773Z,16.23
2019-04-05T03:28:42.980Z,15.83
2019-04-05T03:31:12.556Z,16.73
2019-04-05T03:33:41.052Z,19.80
2019-04-05T03:36:09.841Z,15.60
2019-04-05T03:38:38.730Z,17.30
2019-04-05T03:41:07.822Z,16.57
2019-04-05T03:43:36.385Z,14.90
2019-04-05T03:46:05.677Z,15.13
2019-04-05T03:48:34.475Z,17.10
2019-04-05T03:51:02.926Z,16.67
2019-04-05T03:53:31.521Z,16.50
2019-04-05T03:56:00.544Z,17.53
2019-04-05T03:58:29.587Z,19.63
2019-04-05T04:00:58.176Z,20.37
2019-04-05T04:03:27.342Z,17.40
2019-04-05T04:05:55.925Z,17.00
2019-04-05T04:08:24.490Z,15.10
2019-04-05T04:10:54.069Z,20.47
2019-04-05T04:13:23.693Z,18.40
2019-04-05T04:15:54.271Z,18.70
2019-04-05T04:18:23.663Z,17.53
2019-04-05T04:20:55.230Z,20.50
2019-04-05T04:23:26.668Z,20.60
2019-04-05T04:25:55.641Z,18.20
2019-04-05T04:28:24.326Z,16.83
2019-04-05T04:30:52.918Z,17.73
2019-04-05T04:33:21.537Z,16.43
2019-04-05T04:35:51.090Z,17.43
2019-04-05T04:38:22.938Z,16.47
2019-04-05T04:40:50.084Z,16.50
2019-04-05T04:43:18.852Z,16.80
2019-04-05T04:45:47.261Z,15.23
2019-04-05T04:48:16.853Z,15.60
2019-04-05T04:50:45.690Z,16.63
2019-04-05T04:53:14.778Z,17.83
2019-04-05T04:55:43.273Z,17.53
2019-04-05T04:58:13.290Z,15.93
2019-04-05T05:00:41.779Z,16.03
2019-04-05T05:03:10.353Z,15.93
2019-04-05T05:05:39.005Z,14.93
2019-04-05T05:08:08.021Z,14.07
2019-04-05T05:10:36.797Z,14.27
2019-04-05T05:13:05.472Z,13.20
2019-04-05T05:15:34.165Z,11.73
2019-04-05T05:18:03.039Z,12.80
2019-04-05T05:20:31.849Z,13.73
2019-04-05T05:23:03.629Z,12.33
2019-04-05T05:25:32.231Z,12.77
2019-04-05T05:28:00.873Z,11.27
2019-04-05T05:30:29.343Z,11.07
2019-04-05T05:32:58.139Z,12.27
2019-04-05T05:35:26.648Z,13.57
2019-04-05T05:37:55.244Z,13.47
2019-04-05T05:40:34.029Z,13.53
2019-04-05T05:42:53.998Z,14.87
2019-04-05T05:45:22.492Z,13.83
2019-04-05T05:47:52.329Z,14.77
2019-04-05T05:50:21.114Z,13.50
2019-04-05T05:52:50.115Z,16.53
2019-04-05T05:55:18.607Z,14.50
2019-04-05T05:57:48.689Z,14.67
2019-04-05T06:00:19.242Z,14.70
2019-04-05T06:02:48.519Z,15.13
2019-04-05T06:05:17.182Z,16.03
2019-04-05T06:07:46.333Z,14.63
2019-04-05T06:10:14.748Z,17.93
2019-04-05T06:12:43.191Z,22.17
2019-04-05T06:15:11.806Z,22.93
2019-04-05T06:17:42.527Z,18.17
2019-04-05T06:20:10.539Z,16.33
2019-04-05T06:22:39.438Z,14.67
2019-04-05T06:25:08.031Z,14.23
2019-04-05T06:27:38.566Z,16.27
2019-04-05T06:30:07.306Z,15.33
2019-04-05T06:32:35.738Z,16.77
2019-04-05T06:35:06.319Z,19.70
2019-04-05T06:37:34.745Z,17.73
2019-04-05T06:40:04.349Z,18.23
2019-04-05T06:42:35.734Z,21.67
2019-04-05T06:45:05.813Z,22.50
2019-04-05T06:47:34.248Z,20.30
2019-04-05T06:50:02.742Z,17.87
2019-04-05T06:52:31.182Z,16.70
2019-04-05T06:54:59.613Z,16.13
2019-04-05T06:57:28.037Z,15.47
2019-04-05T06:59:56.486Z,15.20
2019-04-05T07:02:25.001Z,15.70
2019-04-05T07:04:53.450Z,16.13
2019-04-05T07:07:21.870Z,17.57
2019-04-05T07:09:50.318Z,17.70
2019-04-05T07:12:20.567Z,16.77
2019-04-05T07:14:48.990Z,19.87
2019-04-05T07:17:17.425Z,19.57
2019-04-05T07:19:45.905Z,19.13
2019-04-05T07:22:14.411Z,19.67
2019-04-05T07:24:42.852Z,19.00
2019-04-05T07:27:11.277Z,20.17
2019-04-05T07:29:39.734Z,19.43
2019-04-05T07:32:08.161Z,24.23
2019-04-05T07:34:36.607Z,21.90
2019-04-05T07:37:05.099Z,18.80
2019-04-05T07:39:33.559Z,20.83
2019-04-05T07:42:01.988Z,24.77
2019-04-05T07:44:30.444Z,21.77
2019-04-05T07:46:59.149Z,21.83
2019-04-05T07:49:29.183Z,21.97
2019-04-05T07:51:57.601Z,22.80
2019-04-05T07:54:26.042Z,25.33
2019-04-05T07:56:54.463Z,23.30
2019-04-05T07:59:22.942Z,22.17
2019-04-05T08:01:51.346Z,22.17
2019-04-05T08:04:19.802Z,23.80
2019-04-05T08:06:49.374Z,24.27
2019-04-05T08:09:19.274Z,21.97
2019-04-05T08:11:48.644Z,24.53
2019-04-05T08:14:18.629Z,24.80
2019-04-05T08:16:47.057Z,26.00
2019-04-05T08:19:15.501Z,24.23
2019-04-05T08:21:43.952Z,23.87
2019-04-05T08:24:12.391Z,24.23
2019-04-05T08:26:40.834Z,24.47
2019-04-05T08:29:09.285Z,24.93
2019-04-05T08:31:37.704Z,22.90
2019-04-05T08:34:06.127Z,23.80
2019-04-05T08:36:34.551Z,24.77
2019-04-05T08:39:04.641Z,25.97
2019-04-05T08:41:33.093Z,23.77
2019-04-05T08:44:01.513Z,22.50
2019-04-05T08:46:29.942Z,20.50
2019-04-05T08:49:09.953Z,21.50
2019-04-05T08:51:28.551Z,22.67
2019-04-05T08:53:56.968Z,21.20
2019-04-05T08:56:25.414Z,18.67
2019-04-05T08:58:53.842Z,18.83
2019-04-05T09:01:22.291Z,19.53
2019-04-05T09:03:50.754Z,20.43
2019-04-05T09:06:19.207Z,21.63
2019-04-05T09:08:47.650Z,19.53
2019-04-05T09:11:16.085Z,30.47
2019-04-05T09:13:44.534Z,26.63
2019-04-05T09:16:13.046Z,28.97
2019-04-05T09:18:41.471Z,28.57
2019-04-05T09:21:10.212Z,27.30
2019-04-05T09:23:38.822Z,26.50
2019-04-05T09:26:09.549Z,28.70
2019-04-05T09:28:37.407Z,29.20
2019-04-05T09:31:05.840Z,32.53
2019-04-05T09:33:34.303Z,31.27
2019-04-05T09:36:04.741Z,31.80
2019-04-05T09:38:33.454Z,34.77
2019-04-05T09:41:01.882Z,31.23
2019-04-05T09:43:32.586Z,28.93
2019-04-05T09:46:01.037Z,27.63
2019-04-05T09:48:29.458Z,27.00
2019-04-05T09:50:57.908Z,27.60
2019-04-05T09:53:26.326Z,30.50
2019-04-05T09:55:54.831Z,30.57
2019-04-05T09:58:23.291Z,31.13
2019-04-05T10:00:51.736Z,29.27
2019-04-05T10:03:20.161Z,33.93
2019-04-05T10:05:48.607Z,33.57
2019-04-05T10:08:17.063Z,34.10
2019-04-05T10:10:45.504Z,31.57
2019-04-05T10:13:14.013Z,31.27
2019-04-05T10:15:42.472Z,33.57
2019-04-05T10:18:10.902Z,31.13
2019-04-05T10:20:39.359Z,27.13
2019-04-05T10:23:07.847Z,29.00
2019-04-05T10:25:36.376Z,29.77
2019-04-05T10:28:05.339Z,30.43
2019-04-05T10:30:33.773Z,28.57
2019-04-05T10:33:02.213Z,28.70
2019-04-05T10:35:30.643Z,24.17
2019-04-05T10:37:59.084Z,26.27
2019-04-05T10:40:27.512Z,25.27
2019-04-05T10:42:55.954Z,24.77
2019-04-05T10:45:24.443Z,25.40
2019-04-05T10:47:52.897Z,25.60
2019-04-05T10:50:21.431Z,25.37
2019-04-05T10:52:49.866Z,24.97
2019-04-05T10:55:18.295Z,24.27
2019-04-05T10:57:46.797Z,24.03
2019-04-05T11:00:17.452Z,25.57
2019-04-05T11:02:45.963Z,27.87
2019-04-05T11:05:15.052Z,24.40
2019-04-05T11:07:43.572Z,23.47
2019-04-05T11:10:12.765Z,24.17
2019-04-05T11:12:41.223Z,25.73
2019-04-05T11:15:10.296Z,27.80
2019-04-05T11:17:38.732Z,24.77
2019-04-05T11:20:21.294Z,25.67
2019-04-05T11:22:43.029Z,24.73
2019-04-05T11:25:16.078Z,25.77
2019-04-05T11:27:43.447Z,25.90
2019-04-05T11:30:12.633Z,26.23
2019-04-05T11:32:41.059Z,23.67
2019-04-05T11:35:11.569Z,24.97
2019-04-05T11:37:40.459Z,24.13
2019-04-05T11:40:09.932Z,26.03
2019-04-05T11:42:38.451Z,22.47
2019-04-05T11:45:08.919Z,22.93
2019-04-05T11:47:38.601Z,26.23
2019-04-05T11:50:09.756Z,22.97
2019-04-05T11:52:38.259Z,22.93
2019-04-05T11:55:07.834Z,22.03
2019-04-05T11:57:36.253Z,24.93
2019-04-05T12:00:14.326Z,23.90
2019-04-05T12:02:47.393Z,21.87
2019-04-05T12:05:17.395Z,22.00
2019-04-05T12:07:45.848Z,25.00
2019-04-05T12:10:14.407Z,25.53
2019-04-05T12:12:42.849Z,21.17
2019-04-05T12:15:11.415Z,20.93
2019-04-05T12:17:39.859Z,21.30
2019-04-05T12:20:08.747Z,22.10
2019-04-05T12:22:37.950Z,20.37
2019-04-05T12:25:07.354Z,21.60
2019-04-05T12:27:36.067Z,21.27
2019-04-05T12:30:06.406Z,22.47
2019-04-05T12:32:41.109Z,21.07
2019-04-05T12:35:08.462Z,20.23
2019-04-05T12:37:49.194Z,21.20
2019-04-05T12:40:11.143Z,19.93
2019-04-05T12:42:42.642Z,20.70
2019-04-05T12:45:10.180Z,20.53
2019-04-05T12:47:38.868Z,20.40
2019-04-05T12:50:09.153Z,20.63
2019-04-05T12:52:37.596Z,19.97
2019-04-05T12:55:06.858Z,19.63
2019-04-05T12:57:35.311Z,18.23
2019-04-05T13:00:13.620Z,19.63
2019-04-05T13:02:42.682Z,19.80
2019-04-05T13:05:11.349Z,19.73
2019-04-05T13:07:39.804Z,18.37
2019-04-05T13:10:08.375Z,17.90
2019-04-05T13:12:36.818Z,18.93
2019-04-05T13:15:12.932Z,16.53
2019-04-05T13:17:36.756Z,17.03
2019-04-05T13:20:07.821Z,17.80
2019-04-05T13:22:36.246Z,17.00
2019-04-05T13:25:10.757Z,16.33
2019-04-05T13:27:36.867Z,14.30
2019-04-05T13:30:07.058Z,15.53
2019-04-05T13:32:35.478Z,16.57
2019-04-05T13:35:04.658Z,14.97
2019-04-05T13:37:33.080Z,18.10
2019-04-05T13:40:01.610Z,15.67
2019-04-05T13:42:31.937Z,16.20
2019-04-05T13:45:00.197Z,14.20
2019-04-05T13:47:28.626Z,13.27
2019-04-05T13:49:57.099Z,13.57
2019-04-05T13:52:25.777Z,14.70
2019-04-05T13:54:54.233Z,15.00
2019-04-05T13:57:22.651Z,16.73
2019-04-05T13:59:51.097Z,15.47
2019-04-05T14:02:21.220Z,13.80
2019-04-05T14:04:53.616Z,15.63
2019-04-05T14:07:23.444Z,15.93
2019-04-05T14:09:50.185Z,14.20
2019-04-05T14:12:18.606Z,14.07
2019-04-05T14:14:51.012Z,14.43
2019-04-05T14:17:17.219Z,14.30
2019-04-05T14:19:48.436Z,15.77
2019-04-05T14:22:15.823Z,14.03
2019-04-05T14:24:44.274Z,15.47
2019-04-05T14:27:12.687Z,16.30
2019-04-05T14:29:41.132Z,15.30
2019-04-05T14:32:20.344Z,16.43
2019-04-05T14:34:39.730Z,13.20
2019-04-05T14:37:09.804Z,13.90
2019-04-05T14:39:38.242Z,15.07
2019-04-05T14:42:09.958Z,13.57
2019-04-05T14:44:37.599Z,15.13
2019-04-05T14:47:06.038Z,16.23
2019-04-05T14:49:34.491Z,14.73
2019-04-05T14:52:02.902Z,16.80
2019-04-05T14:54:31.329Z,16.53
2019-04-05T14:57:02.424Z,17.47
2019-04-05T14:59:32.646Z,15.53
2019-04-05T15:02:00.070Z,16.63
2019-04-05T15:04:28.493Z,16.00
2019-04-05T15:06:57.923Z,15.87
2019-04-05T15:09:26.375Z,16.23
2019-04-05T15:11:58.306Z,14.70
2019-04-05T15:14:24.980Z,17.07
2019-04-05T15:16:54.711Z,18.63
2019-04-05T15:19:23.229Z,17.47
2019-04-05T15:21:51.674Z,18.00
2019-04-05T15:24:20.126Z,21.80
2019-04-05T15:26:49.451Z,19.23
2019-04-05T15:29:18.744Z,15.20
2019-04-05T15:31:47.355Z,15.67
2019-04-05T15:34:15.805Z,14.17
2019-04-05T15:36:44.247Z,13.30
2019-04-05T15:39:12.854Z,13.60
2019-04-05T15:41:41.294Z,13.70
2019-04-05T15:44:09.732Z,13.10
2019-04-05T15:46:38.174Z,13.37
2019-04-05T15:49:06.601Z,12.07
2019-04-05T15:51:35.046Z,11.70
2019-04-05T15:54:03.474Z,11.83
2019-04-05T15:56:34.104Z,11.37
2019-04-05T15:59:04.616Z,11.40
2019-04-05T16:01:34.266Z,10.20
2019-04-05T16:04:03.442Z,11.10
2019-04-05T16:06:31.945Z,12.80
2019-04-05T16:09:00.359Z,12.93
2019-04-05T16:11:28.807Z,12.80
2019-04-05T16:13:57.233Z,12.73
2019-04-05T16:16:26.046Z,11.27
2019-04-05T16:18:54.468Z,12.03
2019-04-05T16:21:24.826Z,11.30
2019-04-05T16:23:53.247Z,12.00
2019-04-05T16:26:21.699Z,11.90
2019-04-05T16:28:50.139Z,11.93
2019-04-05T16:31:18.581Z,11.57
2019-04-05T16:33:47.004Z,12.00
2019-04-05T16:36:15.462Z,12.70
2019-04-05T16:38:43.922Z,12.60
2019-04-05T16:41:12.365Z,13.13
2019-04-05T16:43:40.908Z,12.67
2019-04-05T16:46:09.409Z,12.63
2019-04-05T16:48:37.839Z,12.40
2019-04-05T16:51:06.292Z,13.67
2019-04-05T16:53:34.735Z,12.13
2019-04-05T16:56:03.178Z,12.10
2019-04-05T16:58:31.612Z,12.10
2019-04-05T17:01:00.059Z,12.10
2019-04-05T17:03:28.502Z,12.20
2019-04-05T17:05:56.930Z,10.53
2019-04-05T17:08:25.346Z,11.13
2019-04-05T17:10:53.799Z,11.97
2019-04-05T17:13:22.286Z,14.60
2019-04-05T17:15:50.887Z,11.90
2019-04-05T17:18:19.341Z,12.43
2019-04-05T17:20:47.766Z,11.47
2019-04-05T17:23:16.214Z,13.67
2019-04-05T17:25:44.649Z,12.17
2019-04-05T17:28:13.097Z,12.53
2019-04-05T17:30:41.817Z,13.57
2019-04-05T17:33:10.529Z,14.20
2019-04-05T17:35:38.965Z,13.77
2019-04-05T17:38:07.414Z,14.23
2019-04-05T17:40:35.844Z,14.87
2019-04-05T17:43:04.291Z,15.33
2019-04-05T17:45:32.733Z,14.93
2019-04-05T17:48:01.164Z,16.43
2019-04-05T17:50:31.841Z,19.57
2019-04-05T17:53:11.472Z,16.97
2019-04-05T17:55:30.435Z,17.60
2019-04-05T17:58:00.049Z,17.13
2019-04-05T18:00:28.478Z,17.70
2019-04-05T18:02:56.926Z,19.57
2019-04-05T18:05:25.369Z,21.40
2019-04-05T18:07:53.814Z,126.17
2019-04-05T18:10:22.247Z,31.57
2019-04-05T18:12:50.711Z,32.03
2019-04-05T18:15:19.126Z,21.97
2019-04-05T18:17:47.578Z,22.63
2019-04-05T18:20:16.014Z,22.20
2019-04-05T18:22:44.515Z,23.27
2019-04-05T18:25:14.329Z,21.30
2019-04-05T18:27:43.026Z,24.30
2019-04-05T18:30:11.817Z,24.23
2019-04-05T18:32:40.272Z,27.33
2019-04-05T18:35:09.042Z,25.20
2019-04-05T18:37:37.484Z,26.57
2019-04-05T18:40:08.752Z,26.83
2019-04-05T18:42:37.201Z,26.23
2019-04-05T18:45:08.471Z,27.83
2019-04-05T18:47:36.916Z,28.00
2019-04-05T18:50:07.081Z,26.87
2019-04-05T18:52:35.790Z,28.63
2019-04-05T18:55:06.917Z,27.80
2019-04-05T18:57:35.362Z,25.93
2019-04-05T19:00:06.330Z,30.13
2019-04-05T19:02:34.857Z,30.87
2019-04-05T19:05:04.218Z,29.40
2019-04-05T19:07:32.661Z,27.03
2019-04-05T19:10:01.104Z,30.53
2019-04-05T19:12:29.583Z,26.83
2019-04-05T19:14:58.058Z,27.70
2019-04-05T19:17:26.506Z,29.80
2019-04-05T19:19:54.919Z,31.80
2019-04-05T19:22:23.376Z,28.47
2019-04-05T19:24:52.084Z,34.97
2019-04-05T19:27:20.538Z,32.83
2019-04-05T19:29:49.260Z,33.57
2019-04-05T19:49:49.163Z,34.87
2019-04-05T19:52:17.590Z,33.63
2019-04-05T19:54:46.032Z,37.13
2019-04-05T19:57:14.467Z,33.80
2019-04-05T19:59:43.632Z,33.53
2019-04-05T20:02:12.099Z,32.27
2019-04-05T20:04:40.663Z,32.67
2019-04-05T20:07:09.093Z,34.97
2019-04-05T20:09:37.524Z,36.30
2019-04-05T20:12:06.016Z,33.73
2019-04-05T20:14:53.839Z,33.73
2019-04-05T20:17:22.366Z,37.97
2019-04-05T20:19:50.863Z,37.17
2019-04-05T20:22:19.277Z,35.60
2019-04-05T20:24:49.950Z,38.80
2019-04-05T20:27:18.394Z,35.17
2019-04-05T20:29:46.847Z,38.30
2019-04-05T20:32:15.267Z,36.80
2019-04-05T20:34:43.731Z,37.50
2019-04-05T20:37:12.162Z,40.17
2019-04-05T20:39:40.601Z,38.83
2019-04-05T20:42:09.357Z,36.90
2019-04-05T20:44:37.816Z,44.30
2019-04-05T20:47:06.254Z,42.53
2019-04-05T20:49:38.466Z,43.90
2019-04-05T20:52:06.912Z,41.27
2019-04-05T20:54:35.332Z,38.63
2019-04-05T20:57:03.783Z,43.53
2019-04-05T20:59:32.228Z,43.00
2019-04-05T21:02:00.637Z,38.83
2019-04-05T21:04:29.080Z,37.53
2019-04-05T21:06:57.513Z,37.40
2019-04-05T21:09:25.971Z,40.20
2019-04-05T21:11:54.397Z,38.80
2019-04-05T21:14:22.830Z,35.93
2019-04-05T21:16:51.299Z,41.33
2019-04-05T21:19:19.725Z,41.47
2019-04-05T21:21:48.165Z,41.23
2019-04-05T21:24:16.611Z,33.83
2019-04-05T21:26:45.070Z,32.60
2019-04-05T21:29:13.511Z,37.87
2019-04-05T21:31:41.939Z,36.87
2019-04-05T21:34:10.389Z,44.80
2019-04-05T21:36:38.814Z,37.50
2019-04-05T21:39:07.719Z,38.93
2019-04-05T21:41:36.130Z,40.43
2019-04-05T21:44:04.641Z,39.97
2019-04-05T21:46:33.097Z,39.10
2019-04-05T21:49:01.795Z,40.03
2019-04-05T21:51:30.266Z,37.87
2019-04-05T21:53:58.680Z,37.60
2019-04-05T21:56:27.138Z,41.73
2019-04-05T21:58:55.550Z,43.77
2019-04-05T22:01:24.945Z,39.17
2019-04-05T22:03:53.362Z,36.77
2019-04-05T22:06:21.797Z,36.97
2019-04-05T22:08:50.226Z,40.37
2019-04-05T22:11:18.675Z,32.43
2019-04-05T22:13:47.119Z,33.13
2019-04-05T22:16:15.570Z,32.00
2019-04-05T22:18:44.002Z,26.67
2019-04-05T22:21:12.443Z,26.17
2019-04-05T22:23:40.895Z,26.93
2019-04-05T22:26:09.713Z,25.90
2019-04-05T22:28:38.128Z,23.80
2019-04-05T22:31:06.576Z,22.23
2019-04-05T22:33:35.003Z,22.53
2019-04-05T22:36:03.441Z,20.77
2019-04-05T22:38:31.882Z,25.33
2019-04-05T22:41:00.314Z,18.87
2019-04-05T22:43:30.283Z,23.27
2019-04-05T22:45:58.695Z,21.63
2019-04-05T22:48:27.182Z,21.53
2019-04-05T22:50:55.638Z,20.90
2019-04-05T22:53:24.073Z,22.20
2019-04-05T22:55:52.647Z,20.67
2019-04-05T22:58:21.075Z,21.33
2019-04-05T23:00:49.527Z,19.60
2019-04-05T23:03:17.951Z,20.03
2019-04-05T23:05:46.382Z,22.17
2019-04-05T23:08:14.833Z,22.87
2019-04-05T23:10:43.352Z,20.87
2019-04-05T23:13:11.801Z,20.87
2019-04-05T23:15:40.255Z,22.67
2019-04-05T23:18:08.686Z,22.90
2019-04-05T23:20:37.146Z,21.00
2019-04-05T23:23:05.588Z,22.20
2019-04-05T23:25:34.095Z,20.60
2019-04-05T23:28:02.526Z,21.07
2019-04-05T23:30:32.346Z,21.70
2019-04-05T23:33:00.770Z,21.87
2019-04-05T23:35:32.254Z,22.20
2019-04-05T23:38:00.691Z,20.63
2019-04-05T23:40:29.220Z,20.13
2019-04-05T23:42:57.647Z,19.43
2019-04-05T23:45:26.124Z,20.70
2019-04-05T23:47:54.638Z,20.03
2019-04-05T23:50:23.124Z,20.23
2019-04-05T23:52:51.564Z,22.80
2019-04-05T23:55:20.753Z,23.10
2019-04-05T23:57:49.203Z,22.57
